Shishmaref, AK

3:50 AM AKDT on October 23, 2014 (GMT -0800)
New Shishmaref | Change Station
CLOSE
Current Station
Airport
Location: Shishmaref,
Elevation: 13 ft
Nearby Weather Stations
Active Advisory: High Surf Advisory

Elev 13 ft 66.25 °N, 166.09 °W | Updated 14 minutes ago

Overcast
Overcast
28 °F
Feels Like 21 °F
N
7
Wind Variable Wind from SSW

Today
High -- | Low -- °F
--% Chance of Precip.
Yesterday
High -- | Low -- °F
Precip. -- in
10:26 AM 7:04 PM
Waning Crescent, 0% visible
Pressure 29.84 in
Visibility 10.0 miles
Clouds Overcast 2400 ft
Windchill 21 °F
Dew Point 21 °F
Humidity 74%
Rainfall 0.00 in
Snow Depth Not available.
UV 0 out of 12
Pollen Not available.
Air Quality Not available.
Flu Activity Sporadic
METAR PASH 231136Z AUTO 20006KT 10SM OVC024 M02/M06 A2984 RMK AO1

More Conditions Fewer Conditions

Pressure 29.84 in
Visibility 10.0 miles
Clouds Overcast 2400 ft
Windchill 21 °F
Dew Point 21 °F
Humidity 74%
Rainfall 0.00 in
Snow Depth Not available.
UV 0 out of 12
Pollen Not available.
Air Quality Not available.
Flu Activity Sporadic
METAR PASH 231136Z AUTO 20006KT 10SM OVC024 M02/M06 A2984 RMK AO1

More Conditions Fewer Conditions

10-Day Weather Forecast

Almanac

Astronomy

Oct. 23, 2014 Rise Set
Actual Time 10:26 AM AKDT 7:04 PM AKDT
Civil Twilight 9:31 AM AKDT 7:59 PM AKDT
Nautical Twilight 8:31 AM AKDT 8:59 PM AKDT
Astronomical Twilight 7:32 AM AKDT 9:58 PM AKDT
Moon 10:16 AM AKDT 7:08 PM AKDT
Length of Visible Light 10h 27m
Length of Day
8h 37m
Tomorrow will be 7m 12s shorter.
Waning Crescent, 0% of the Moon is Illuminated
Today
Waning Crescent
Oct 23
New
Oct 30
First Quarter
Nov 6
Full
Nov 14
Last Quarter

Today's Extremes

State Highs State Lows

Community

WunderPhotos

Upload Photos

1,764,209 photos uploaded!

Nearby

Snow Depth

Station Depth Elevation
Rocky Point 1 in 500 ft
Gobblers Knob 1 in 2030 ft
Coldfoot 5 in 1040 ft
Atigun Pass 14 in 4800 ft
Imnaviat Creek 22 in 3050 ft

Earthquake Activity

City Distance Mag. Time & Date
No recent earthquake activity has been reported nearby.
Minimum magnitude displayed is 2.5.

Coastal Water Temperatures

Place Temperature
No Stations Reporting

Nearby Weather Stations